sensor_id;sensor_type;location;lat;lon;timestamp;pressure;altitude;pressure_sealevel;temperature;humidity
77452;BME280;66537;52.370;4.832;2023-12-04T00:01:46;101323.47;;;1.47;100.00
77452;BME280;66537;52.370;4.832;2023-12-04T00:04:12;101316.78;;;1.52;100.00
77452;BME280;66537;52.370;4.832;2023-12-04T00:06:37;101315.88;;;1.49;100.00
77452;BME280;66537;52.370;4.832;2023-12-04T00:09:03;101318.44;;;1.49;100.00
77452;BME280;66537;52.370;4.832;2023-12-04T00:11:28;101310.69;;;1.43;100.00
77452;BME280;66537;52.370;4.832;2023-12-04T00:13:54;101305.59;;;1.44;100.00
77452;BME280;66537;52.370;4.832;2023-12-04T00:16:19;101301.28;;;1.40;100.00
77452;BME280;66537;52.370;4.832;2023-12-04T00:18:44;101304.81;;;1.50;100.00
77452;BME280;66537;52.370;4.832;2023-12-04T00:21:10;101290.44;;;1.53;100.00
77452;BME280;66537;52.370;4.832;2023-12-04T00:23:35;101292.97;;;1.53;100.00
77452;BME280;66537;52.370;4.832;2023-12-04T00:26:04;101282.00;;;1.59;100.00
77452;BME280;66537;52.370;4.832;2023-12-04T00:28:29;101287.16;;;1.60;100.00
77452;BME280;66537;52.370;4.832;2023-12-04T00:30:55;101294.69;;;1.53;100.00
77452;BME280;66537;52.370;4.832;2023-12-04T00:33:20;101284.25;;;1.38;100.00
77452;BME280;66537;52.370;4.832;2023-12-04T00:35:45;101278.47;;;1.49;100.00
77452;BME280;66537;52.370;4.832;2023-12-04T00:38:11;101282.94;;;1.62;100.00
77452;BME280;66537;52.370;4.832;2023-12-04T00:40:36;101277.84;;;1.62;100.00
77452;BME280;66537;52.370;4.832;2023-12-04T00:43:02;101285.34;;;1.55;100.00
77452;BME280;66537;52.370;4.832;2023-12-04T00:45:27;101281.28;;;1.66;100.00
77452;BME280;66537;52.370;4.832;2023-12-04T00:47:52;101282.94;;;1.62;100.00
77452;BME280;66537;52.370;4.832;2023-12-04T00:50:18;101288.00;;;1.61;100.00
77452;BME280;66537;52.370;4.832;2023-12-04T00:52:43;101279.41;;;1.53;100.00
77452;BME280;66537;52.370;4.832;2023-12-04T00:55:08;101274.91;;;1.40;100.00
77452;BME280;66537;52.370;4.832;2023-12-04T00:57:34;101273.25;;;1.42;100.00
77452;BME280;66537;52.370;4.832;2023-12-04T00:59:59;101264.91;;;1.52;100.00
77452;BME280;66537;52.370;4.832;2023-12-04T01:02:24;101260.69;;;1.52;100.00
77452;BME280;66537;52.370;4.832;2023-12-04T01:04:50;101265.97;;;1.64;100.00
77452;BME280;66537;52.370;4.832;2023-12-04T01:07:15;101255.47;;;1.45;100.00
77452;BME280;66537;52.370;4.832;2023-12-04T01:09:41;101254.59;;;1.44;100.00
77452;BME280;66537;52.370;4.832;2023-12-04T01:12:06;101252.97;;;1.49;100.00
77452;BME280;66537;52.370;4.832;2023-12-04T01:14:31;101252.75;;;1.33;100.00
77452;BME280;66537;52.370;4.832;2023-12-04T01:16:58;101247.63;;;1.33;100.00
77452;BME280;66537;52.370;4.832;2023-12-04T01:19:23;101246.06;;;1.39;100.00
77452;BME280;66537;52.370;4.832;2023-12-04T01:21:48;101249.38;;;1.35;100.00
77452;BME280;66537;52.370;4.832;2023-12-04T01:24:15;101233.44;;;1.48;100.00
77452;BME280;66537;52.370;4.832;2023-12-04T01:26:40;101242.56;;;1.34;100.00
77452;BME280;66537;52.370;4.832;2023-12-04T01:29:06;101239.50;;;1.56;100.00
77452;BME280;66537;52.370;4.832;2023-12-04T01:31:31;101233.50;;;1.53;100.00
77452;BME280;66537;52.370;4.832;2023-12-04T01:33:57;101230.00;;;1.46;100.00
77452;BME280;66537;52.370;4.832;2023-12-04T01:36:22;101232.63;;;1.51;100.00
77452;BME280;66537;52.370;4.832;2023-12-04T01:38:47;101224.19;;;1.56;100.00
77452;BME280;66537;52.370;4.832;2023-12-04T01:41:13;101223.34;;;1.59;100.00
77452;BME280;66537;52.370;4.832;2023-12-04T01:43:38;101219.22;;;1.65;100.00
77452;BME280;66537;52.370;4.832;2023-12-04T01:46:04;101226.00;;;1.65;100.00
77452;BME280;66537;52.370;4.832;2023-12-04T01:48:30;101224.22;;;1.59;100.00
77452;BME280;66537;52.370;4.832;2023-12-04T01:50:57;101212.34;;;1.61;100.00
77452;BME280;66537;52.370;4.832;2023-12-04T01:53:23;101195.47;;;1.71;100.00
77452;BME280;66537;52.370;4.832;2023-12-04T01:55:49;101181.03;;;1.70;100.00
77452;BME280;66537;52.370;4.832;2023-12-04T01:58:15;101192.06;;;1.69;100.00
77452;BME280;66537;52.370;4.832;2023-12-04T02:00:41;101194.59;;;1.69;100.00
77452;BME280;66537;52.370;4.832;2023-12-04T02:03:07;101194.47;;;1.58;100.00
77452;BME280;66537;52.370;4.832;2023-12-04T02:05:33;101193.78;;;1.70;100.00
77452;BME280;66537;52.370;4.832;2023-12-04T02:08:00;101191.41;;;1.85;100.00
77452;BME280;66537;52.370;4.832;2023-12-04T02:10:26;101195.81;;;1.97;100.00
77452;BME280;66537;52.370;4.832;2023-12-04T02:12:51;101194.88;;;1.90;100.00
77452;BME280;66537;52.370;4.832;2023-12-04T02:15:16;101194.78;;;1.82;100.00
77452;BME280;66537;52.370;4.832;2023-12-04T02:17:45;101180.31;;;1.80;100.00
77452;BME280;66537;52.370;4.832;2023-12-04T02:20:14;101175.22;;;1.83;100.00
77452;BME280;66537;52.370;4.832;2023-12-04T02:22:40;101182.16;;;1.93;100.00
77452;BME280;66537;52.370;4.832;2023-12-04T02:25:06;101184.81;;;2.01;100.00
77452;BME280;66537;52.370;4.832;2023-12-04T02:27:40;101171.97;;;1.95;100.00
77452;BME280;66537;52.370;4.832;2023-12-04T02:30:11;101164.44;;;2.05;100.00
77452;BME280;66537;52.370;4.832;2023-12-04T02:32:44;101166.06;;;1.97;100.00
77452;BME280;66537;52.370;4.832;2023-12-04T02:35:10;101160.03;;;1.94;100.00
77452;BME280;66537;52.370;4.832;2023-12-04T02:37:36;101161.81;;;1.99;100.00
77452;BME280;66537;52.370;4.832;2023-12-04T02:40:02;101156.63;;;1.92;100.00
77452;BME280;66537;52.370;4.832;2023-12-04T02:42:28;101154.91;;;1.92;100.00
77452;BME280;66537;52.370;4.832;2023-12-04T02:44:54;101150.69;;;1.93;100.00
77452;BME280;66537;52.370;4.832;2023-12-04T02:47:19;101146.38;;;1.89;100.00
77452;BME280;66537;52.370;4.832;2023-12-04T02:49:44;101143.09;;;1.97;100.00
77452;BME280;66537;52.370;4.832;2023-12-04T02:52:10;101126.91;;;1.95;100.00
77452;BME280;66537;52.370;4.832;2023-12-04T02:54:35;101124.34;;;1.95;100.00
77452;BME280;66537;52.370;4.832;2023-12-04T02:57:01;101128.59;;;1.93;100.00
77452;BME280;66537;52.370;4.832;2023-12-04T02:59:26;101118.38;;;1.95;100.00
77452;BME280;66537;52.370;4.832;2023-12-04T03:01:51;101114.16;;;1.98;100.00
77452;BME280;66537;52.370;4.832;2023-12-04T03:04:19;101113.50;;;2.14;100.00
77452;BME280;66537;52.370;4.832;2023-12-04T03:06:44;101111.69;;;2.04;100.00
77452;BME280;66537;52.370;4.832;2023-12-04T03:09:09;101110.81;;;2.01;100.00
77452;BME280;66537;52.370;4.832;2023-12-04T03:11:35;101097.25;;;2.08;100.00
77452;BME280;66537;52.370;4.832;2023-12-04T03:14:00;101100.63;;;2.04;100.00
77452;BME280;66537;52.370;4.832;2023-12-04T03:16:26;101095.56;;;2.05;100.00
77452;BME280;66537;52.370;4.832;2023-12-04T03:18:52;101092.16;;;2.08;100.00
77452;BME280;66537;52.370;4.832;2023-12-04T03:21:17;101091.28;;;2.07;100.00
77452;BME280;66537;52.370;4.832;2023-12-04T03:23:42;101086.16;;;2.01;100.00
77452;BME280;66537;52.370;4.832;2023-12-04T03:26:09;101089.59;;;2.09;100.00
77452;BME280;66537;52.370;4.832;2023-12-04T03:28:34;101087.22;;;2.27;100.00
77452;BME280;66537;52.370;4.832;2023-12-04T03:30:59;101096.50;;;2.19;100.00
77452;BME280;66537;52.370;4.832;2023-12-04T03:33:25;101084.63;;;2.23;100.00
77452;BME280;66537;52.370;4.832;2023-12-04T03:35:50;101076.84;;;2.06;100.00
77452;BME280;66537;52.370;4.832;2023-12-04T03:38:15;101075.22;;;2.14;100.00
77452;BME280;66537;52.370;4.832;2023-12-04T03:40:41;101072.72;;;2.20;100.00
77452;BME280;66537;52.370;4.832;2023-12-04T03:43:06;101065.00;;;2.14;100.00
77452;BME280;66537;52.370;4.832;2023-12-04T03:45:31;101056.50;;;2.15;100.00
77452;BME280;66537;52.370;4.832;2023-12-04T03:47:57;101060.63;;;2.01;100.00
77452;BME280;66537;52.370;4.832;2023-12-04T03:50:22;101055.53;;;2.03;100.00
77452;BME280;66537;52.370;4.832;2023-12-04T03:52:48;101046.16;;;1.99;100.00
77452;BME280;66537;52.370;4.832;2023-12-04T03:55:13;101041.09;;;2.05;100.00
77452;BME280;66537;52.370;4.832;2023-12-04T03:57:38;101044.47;;;2.04;100.00
77452;BME280;66537;52.370;4.832;2023-12-04T04:00:05;101039.31;;;1.98;100.00
77452;BME280;66537;52.370;4.832;2023-12-04T04:02:30;101037.63;;;2.00;100.00
77452;BME280;66537;52.370;4.832;2023-12-04T04:04:55;101032.38;;;1.81;100.00
77452;BME280;66537;52.370;4.832;2023-12-04T04:07:21;101035.81;;;1.88;100.00
77452;BME280;66537;52.370;4.832;2023-12-04T04:09:46;101028.16;;;1.83;100.00
77452;BME280;66537;52.370;4.832;2023-12-04T04:12:12;101028.97;;;1.82;100.00
77452;BME280;66537;52.370;4.832;2023-12-04T04:14:37;101022.25;;;1.92;100.00
77452;BME280;66537;52.370;4.832;2023-12-04T04:17:03;101018.78;;;1.82;100.00
77452;BME280;66537;52.370;4.832;2023-12-04T04:19:28;101024.81;;;1.92;100.00
77452;BME280;66537;52.370;4.832;2023-12-04T04:21:54;101023.81;;;1.76;100.00
77452;BME280;66537;52.370;4.832;2023-12-04T04:24:19;101017.03;;;1.78;100.00
77452;BME280;66537;52.370;4.832;2023-12-04T04:26:45;101017.91;;;1.80;100.00
77452;BME280;66537;52.370;4.832;2023-12-04T04:29:10;101010.19;;;1.74;100.00
77452;BME280;66537;52.370;4.832;2023-12-04T04:31:36;101006.00;;;1.79;100.00
77452;BME280;66537;52.370;4.832;2023-12-04T04:34:01;101006.75;;;1.72;100.00
77452;BME280;66537;52.370;4.832;2023-12-04T04:36:27;101004.31;;;1.80;100.00
77452;BME280;66537;52.370;4.832;2023-12-04T04:38:52;101003.38;;;1.72;100.00
77452;BME280;66537;52.370;4.832;2023-12-04T04:41:17;101000.09;;;1.83;100.00
77452;BME280;66537;52.370;4.832;2023-12-04T04:43:43;101004.34;;;1.86;100.00
77452;BME280;66537;52.370;4.832;2023-12-04T04:46:08;100995.81;;;1.81;100.00
77452;BME280;66537;52.370;4.832;2023-12-04T04:48:33;100999.16;;;1.74;100.00
77452;BME280;66537;52.370;4.832;2023-12-04T04:50:59;100995.88;;;1.86;100.00
77452;BME280;66537;52.370;4.832;2023-12-04T04:53:24;100989.84;;;1.82;100.00
77452;BME280;66537;52.370;4.832;2023-12-04T04:55:49;100995.88;;;1.90;100.00
77452;BME280;66537;52.370;4.832;2023-12-04T04:58:16;100999.28;;;1.89;100.00
77452;BME280;66537;52.370;4.832;2023-12-04T05:00:41;100984.84;;;1.93;100.00
77452;BME280;66537;52.370;4.832;2023-12-04T05:03:07;100990.00;;;1.97;100.00
77452;BME280;66537;52.370;4.832;2023-12-04T05:05:32;100979.88;;;2.05;100.00
77452;BME280;66537;52.370;4.832;2023-12-04T05:07:57;100985.72;;;1.95;100.00
77452;BME280;66537;52.370;4.832;2023-12-04T05:10:23;100978.88;;;1.89;100.00
77452;BME280;66537;52.370;4.832;2023-12-04T05:12:48;100985.72;;;1.96;100.00
77452;BME280;66537;52.370;4.832;2023-12-04T05:15:13;100980.72;;;2.05;100.00
77452;BME280;66537;52.370;4.832;2023-12-04T05:17:40;100974.78;;;2.08;100.00
77452;BME280;66537;52.370;4.832;2023-12-04T05:20:06;100969.53;;;1.90;100.00
77452;BME280;66537;52.370;4.832;2023-12-04T05:22:31;100953.31;;;1.86;100.00
77452;BME280;66537;52.370;4.832;2023-12-04T05:24:56;100960.19;;;1.92;100.00
77452;BME280;66537;52.370;4.832;2023-12-04T05:27:22;100950.94;;;2.01;100.00
77452;BME280;66537;52.370;4.832;2023-12-04T05:29:47;100948.53;;;2.24;100.00
77452;BME280;66537;52.370;4.832;2023-12-04T05:32:12;100933.13;;;2.13;100.00
77452;BME280;66537;52.370;4.832;2023-12-04T05:34:38;100944.19;;;2.11;100.00
77452;BME280;66537;52.370;4.832;2023-12-04T05:37:03;100942.50;;;2.13;100.00
77452;BME280;66537;52.370;4.832;2023-12-04T05:39:29;100933.06;;;2.07;100.00
77452;BME280;66537;52.370;4.832;2023-12-04T05:41:54;100932.25;;;2.10;100.00
77452;BME280;66537;52.370;4.832;2023-12-04T05:44:19;100922.03;;;2.10;100.00
77452;BME280;66537;52.370;4.832;2023-12-04T05:46:45;100924.59;;;2.07;100.00
77452;BME280;66537;52.370;4.832;2023-12-04T05:49:10;100926.41;;;2.24;100.00
77452;BME280;66537;52.370;4.832;2023-12-04T05:51:35;100932.25;;;2.05;100.00
77452;BME280;66537;52.370;4.832;2023-12-04T05:54:01;100920.47;;;2.27;100.00
77452;BME280;66537;52.370;4.832;2023-12-04T05:56:26;100912.72;;;2.10;100.00
77452;BME280;66537;52.370;4.832;2023-12-04T05:58:51;100916.13;;;2.12;100.00
77452;BME280;66537;52.370;4.832;2023-12-04T06:01:16;100900.78;;;2.08;100.00
77452;BME280;66537;52.370;4.832;2023-12-04T06:03:42;100914.38;;;2.05;100.00
77452;BME280;66537;52.370;4.832;2023-12-04T06:06:07;100901.66;;;2.13;100.00
77452;BME280;66537;52.370;4.832;2023-12-04T06:08:33;100894.84;;;2.09;100.00
77452;BME280;66537;52.370;4.832;2023-12-04T06:10:58;100898.22;;;2.09;100.00
77452;BME280;66537;52.370;4.832;2023-12-04T06:13:23;100896.63;;;2.19;100.00
77452;BME280;66537;52.370;4.832;2023-12-04T06:15:49;100896.56;;;2.14;100.00
77452;BME280;66537;52.370;4.832;2023-12-04T06:18:14;100895.84;;;2.33;100.00
77452;BME280;66537;52.370;4.832;2023-12-04T06:20:40;100895.03;;;2.45;100.00
77452;BME280;66537;52.370;4.832;2023-12-04T06:23:05;100895.00;;;2.37;100.00
77452;BME280;66537;52.370;4.832;2023-12-04T06:25:31;100894.06;;;2.22;100.00
77452;BME280;66537;52.370;4.832;2023-12-04T06:27:56;100902.66;;;2.36;100.00
77452;BME280;66537;52.370;4.832;2023-12-04T06:30:22;100904.31;;;2.32;100.00
77452;BME280;66537;52.370;4.832;2023-12-04T06:32:48;100897.53;;;2.34;100.00
77452;BME280;66537;52.370;4.832;2023-12-04T06:35:13;100893.28;;;2.33;100.00
77452;BME280;66537;52.370;4.832;2023-12-04T06:37:40;100908.59;;;2.33;100.00
77452;BME280;66537;52.370;4.832;2023-12-04T06:40:06;100895.88;;;2.39;100.00
77452;BME280;66537;52.370;4.832;2023-12-04T06:42:37;100895.84;;;2.35;100.00
77452;BME280;66537;52.370;4.832;2023-12-04T06:45:02;100897.56;;;2.36;100.00
77452;BME280;66537;52.370;4.832;2023-12-04T06:47:31;100886.56;;;2.47;100.00
77452;BME280;66537;52.370;4.832;2023-12-04T06:49:56;100883.13;;;2.50;100.00
77452;BME280;66537;52.370;4.832;2023-12-04T06:52:21;100885.63;;;2.33;100.00
77452;BME280;66537;52.370;4.832;2023-12-04T06:54:47;100880.50;;;2.36;100.00
77452;BME280;66537;52.370;4.832;2023-12-04T06:57:12;100875.41;;;2.30;100.00
77452;BME280;66537;52.370;4.832;2023-12-04T06:59:42;100886.41;;;2.23;100.00
77452;BME280;66537;52.370;4.832;2023-12-04T07:02:08;100877.03;;;2.21;100.00
77452;BME280;66537;52.370;4.832;2023-12-04T07:04:33;100883.03;;;2.24;100.00
77452;BME280;66537;52.370;4.832;2023-12-04T07:06:59;100869.38;;;2.15;100.00
77452;BME280;66537;52.370;4.832;2023-12-04T07:09:32;100862.56;;;2.18;100.00
77452;BME280;66537;52.370;4.832;2023-12-04T07:11:59;100852.38;;;2.23;100.00
77452;BME280;66537;52.370;4.832;2023-12-04T07:14:24;100863.41;;;2.17;100.00
77452;BME280;66537;52.370;4.832;2023-12-04T07:16:49;100870.28;;;2.24;100.00
77452;BME280;66537;52.370;4.832;2023-12-04T07:19:15;100858.41;;;2.37;100.00
77452;BME280;66537;52.370;4.832;2023-12-04T07:21:41;100849.09;;;2.43;100.00
77452;BME280;66537;52.370;4.832;2023-12-04T07:24:07;100856.72;;;2.37;100.00
77452;BME280;66537;52.370;4.832;2023-12-04T07:26:36;100851.56;;;2.31;100.00
77452;BME280;66537;52.370;4.832;2023-12-04T07:29:02;100845.66;;;2.44;100.00
77452;BME280;66537;52.370;4.832;2023-12-04T07:31:28;100850.78;;;2.41;100.00
77452;BME280;66537;52.370;4.832;2023-12-04T07:33:54;100852.47;;;2.39;100.00
77452;BME280;66537;52.370;4.832;2023-12-04T07:36:19;100853.25;;;2.32;100.00
77452;BME280;66537;52.370;4.832;2023-12-04T07:38:45;100851.53;;;2.25;100.00
77452;BME280;66537;52.370;4.832;2023-12-04T07:41:10;100857.47;;;2.21;100.00
77452;BME280;66537;52.370;4.832;2023-12-04T07:43:36;100848.16;;;2.31;100.00
77452;BME280;66537;52.370;4.832;2023-12-04T07:46:01;100846.47;;;2.30;100.00
77452;BME280;66537;52.370;4.832;2023-12-04T07:48:26;100858.38;;;2.31;100.00
77452;BME280;66537;52.370;4.832;2023-12-04T07:50:52;100848.16;;;2.29;100.00
77452;BME280;66537;52.370;4.832;2023-12-04T07:53:17;100841.38;;;2.34;100.00
77452;BME280;66537;52.370;4.832;2023-12-04T07:55:43;100841.38;;;2.34;100.00
77452;BME280;66537;52.370;4.832;2023-12-04T07:58:09;100838.84;;;2.36;100.00
77452;BME280;66537;52.370;4.832;2023-12-04T08:00:34;100840.56;;;2.43;100.00
77452;BME280;66537;52.370;4.832;2023-12-04T08:03:00;100835.47;;;2.41;100.00
77452;BME280;66537;52.370;4.832;2023-12-04T08:05:25;100831.19;;;2.37;100.00
77452;BME280;66537;52.370;4.832;2023-12-04T08:07:52;100831.25;;;2.55;100.00
77452;BME280;66537;52.370;4.832;2023-12-04T08:10:17;100832.06;;;2.47;100.00
77452;BME280;66537;52.370;4.832;2023-12-04T08:12:45;100833.78;;;2.54;100.00
77452;BME280;66537;52.370;4.832;2023-12-04T08:15:10;100820.25;;;2.67;100.00
77452;BME280;66537;52.370;4.832;2023-12-04T08:17:36;100832.09;;;2.54;100.00
77452;BME280;66537;52.370;4.832;2023-12-04T08:20:01;100833.81;;;2.58;100.00
77452;BME280;66537;52.370;4.832;2023-12-04T08:22:27;100832.97;;;2.62;100.00
77452;BME280;66537;52.370;4.832;2023-12-04T08:24:52;100823.63;;;2.63;100.00
77452;BME280;66537;52.370;4.832;2023-12-04T08:27:18;100824.47;;;2.59;100.00
77452;BME280;66537;52.370;4.832;2023-12-04T08:29:43;100821.06;;;2.67;100.00
77452;BME280;66537;52.370;4.832;2023-12-04T08:32:09;100810.84;;;2.67;100.00
77452;BME280;66537;52.370;4.832;2023-12-04T08:34:34;100814.28;;;2.85;100.00
77452;BME280;66537;52.370;4.832;2023-12-04T08:36:59;100826.16;;;2.61;100.00
77452;BME280;66537;52.370;4.832;2023-12-04T08:39:25;100804.94;;;2.76;100.00
77452;BME280;66537;52.370;4.832;2023-12-04T08:41:50;100806.66;;;2.88;100.00
77452;BME280;66537;52.370;4.832;2023-12-04T08:44:15;100798.13;;;2.84;100.00
77452;BME280;66537;52.370;4.832;2023-12-04T08:46:42;100832.19;;;2.88;100.00
77452;BME280;66537;52.370;4.832;2023-12-04T08:49:08;100831.38;;;3.02;100.00
77452;BME280;66537;52.370;4.832;2023-12-04T08:51:34;100812.66;;;3.03;100.00
77452;BME280;66537;52.370;4.832;2023-12-04T08:53:59;100799.00;;;3.03;100.00
77452;BME280;66537;52.370;4.832;2023-12-04T08:56:25;100812.63;;;2.94;100.00
77452;BME280;66537;52.370;4.832;2023-12-04T08:58:50;100821.09;;;2.75;100.00
77452;BME280;66537;52.370;4.832;2023-12-04T09:01:16;100808.34;;;2.83;100.00
77452;BME280;66537;52.370;4.832;2023-12-04T09:03:41;100821.94;;;2.72;100.00
77452;BME280;66537;52.370;4.832;2023-12-04T09:06:07;100804.06;;;2.65;100.00
77452;BME280;66537;52.370;4.832;2023-12-04T09:08:32;100800.69;;;2.84;100.00
77452;BME280;66537;52.370;4.832;2023-12-04T09:10:58;100808.34;;;2.83;100.00
77452;BME280;66537;52.370;4.832;2023-12-04T09:13:24;100796.41;;;2.75;100.00
77452;BME280;66537;52.370;4.832;2023-12-04T09:15:49;100801.53;;;2.85;100.00
77452;BME280;66537;52.370;4.832;2023-12-04T09:18:15;100808.34;;;2.95;100.00
77452;BME280;66537;52.370;4.832;2023-12-04T09:20:41;100802.41;;;2.93;100.00
77452;BME280;66537;52.370;4.832;2023-12-04T09:23:06;100803.25;;;3.10;100.00
77452;BME280;66537;52.370;4.832;2023-12-04T09:25:31;100808.41;;;3.13;100.00
77452;BME280;66537;52.370;4.832;2023-12-04T09:27:57;100810.09;;;3.27;100.00
77452;BME280;66537;52.370;4.832;2023-12-04T09:30:22;100809.25;;;3.07;100.00
77452;BME280;66537;52.370;4.832;2023-12-04T09:32:48;100804.97;;;3.26;100.00
77452;BME280;66537;52.370;4.832;2023-12-04T09:35:13;100798.16;;;3.22;100.00
77452;BME280;66537;52.370;4.832;2023-12-04T09:37:40;100788.81;;;3.46;100.00
77452;BME280;66537;52.370;4.832;2023-12-04T09:40:06;100801.56;;;3.39;100.00
77452;BME280;66537;52.370;4.832;2023-12-04T09:42:33;100792.19;;;3.35;100.00
77452;BME280;66537;52.370;4.832;2023-12-04T09:44:59;100793.91;;;3.37;100.00
77452;BME280;66537;52.370;4.832;2023-12-04T09:47:26;100796.47;;;3.37;100.00
77452;BME280;66537;52.370;4.832;2023-12-04T09:49:51;100790.50;;;3.49;100.00
77452;BME280;66537;52.370;4.832;2023-12-04T09:52:19;100787.94;;;3.35;100.00
77452;BME280;66537;52.370;4.832;2023-12-04T09:54:44;100791.38;;;3.28;100.00
77452;BME280;66537;52.370;4.832;2023-12-04T09:57:11;100793.06;;;3.28;100.00
77452;BME280;66537;52.370;4.832;2023-12-04T09:59:38;100785.38;;;3.40;100.00
77452;BME280;66537;52.370;4.832;2023-12-04T10:02:04;100787.06;;;3.48;100.00
77452;BME280;66537;52.370;4.832;2023-12-04T10:04:31;100789.66;;;3.45;100.00
77452;BME280;66537;52.370;4.832;2023-12-04T10:06:57;100792.22;;;3.45;100.00
77452;BME280;66537;52.370;4.832;2023-12-04T10:09:22;100785.38;;;3.41;100.00
77452;BME280;66537;52.370;4.832;2023-12-04T10:11:50;100778.56;;;3.45;100.00
77452;BME280;66537;52.370;4.832;2023-12-04T10:14:18;100773.44;;;3.43;100.00
77452;BME280;66537;52.370;4.832;2023-12-04T10:16:45;100768.34;;;3.43;100.00
77452;BME280;66537;52.370;4.832;2023-12-04T10:19:18;100763.22;;;3.60;100.00
77452;BME280;66537;52.370;4.832;2023-12-04T10:21:45;100765.78;;;3.39;100.00
77452;BME280;66537;52.370;4.832;2023-12-04T10:24:11;100750.44;;;3.39;100.00
77452;BME280;66537;52.370;4.832;2023-12-04T10:26:37;100752.16;;;3.40;100.00
77452;BME280;66537;52.370;4.832;2023-12-04T10:29:03;100753.88;;;3.17;100.00
77452;BME280;66537;52.370;4.832;2023-12-04T10:31:33;100748.72;;;3.33;100.00
77452;BME280;66537;52.370;4.832;2023-12-04T10:33:59;100747.88;;;3.36;100.00
77452;BME280;66537;52.370;4.832;2023-12-04T10:36:25;100728.28;;;3.36;100.00
77452;BME280;66537;52.370;4.832;2023-12-04T10:39:00;100735.09;;;3.24;100.00
77452;BME280;66537;52.370;4.832;2023-12-04T10:41:25;100732.56;;;3.30;100.00
77452;BME280;66537;52.370;4.832;2023-12-04T10:43:51;100733.41;;;3.32;100.00
77452;BME280;66537;52.370;4.832;2023-12-04T10:46:17;100715.50;;;3.24;100.00
77452;BME280;66537;52.370;4.832;2023-12-04T10:48:44;100714.66;;;3.28;100.00
77452;BME280;66537;52.370;4.832;2023-12-04T10:51:11;100706.13;;;3.37;100.00
77452;BME280;66537;52.370;4.832;2023-12-04T10:53:37;100701.84;;;3.42;100.00
77452;BME280;66537;52.370;4.832;2023-12-04T10:56:05;100686.44;;;3.71;100.00
77452;BME280;66537;52.370;4.832;2023-12-04T10:58:31;100692.44;;;3.57;100.00
77452;BME280;66537;52.370;4.832;2023-12-04T11:00:57;100693.25;;;3.79;100.00
77452;BME280;66537;52.370;4.832;2023-12-04T11:03:32;100693.22;;;3.87;100.00
77452;BME280;66537;52.370;4.832;2023-12-04T11:06:02;100687.19;;;3.97;100.00
77452;BME280;66537;52.370;4.832;2023-12-04T11:08:33;100680.28;;;4.11;100.00
77452;BME280;66537;52.370;4.832;2023-12-04T11:11:02;100678.56;;;4.17;100.00
77452;BME280;66537;52.370;4.832;2023-12-04T11:13:37;100669.97;;;4.23;100.00
77452;BME280;66537;52.370;4.832;2023-12-04T11:16:28;100672.69;;;3.94;100.00
77452;BME280;66537;52.370;4.832;2023-12-04T11:19:28;100659.03;;;3.95;100.00
77452;BME280;66537;52.370;4.832;2023-12-04T11:21:58;100660.84;;;3.72;100.00
77452;BME280;66537;52.370;4.832;2023-12-04T11:24:24;100661.53;;;4.03;100.00
77452;BME280;66537;52.370;4.832;2023-12-04T11:26:50;100651.31;;;4.03;100.00
77452;BME280;66537;52.370;4.832;2023-12-04T11:29:17;100642.81;;;3.93;100.00
77452;BME280;66537;52.370;4.832;2023-12-04T11:31:42;100646.19;;;4.03;100.00
77452;BME280;66537;52.370;4.832;2023-12-04T11:34:08;100645.34;;;3.99;100.00
77452;BME280;66537;52.370;4.832;2023-12-04T11:36:37;100650.34;;;4.20;100.00
77452;BME280;66537;52.370;4.832;2023-12-04T11:39:02;100641.97;;;3.99;100.00
77452;BME280;66537;52.370;4.832;2023-12-04T11:41:29;100647.09;;;3.99;100.00
77452;BME280;66537;52.370;4.832;2023-12-04T11:43:56;100642.69;;;4.23;100.00
77452;BME280;66537;52.370;4.832;2023-12-04T11:46:23;100634.94;;;4.28;100.00
77452;BME280;66537;52.370;4.832;2023-12-04T11:49:27;100634.13;;;4.24;100.00
77452;BME280;66537;52.370;4.832;2023-12-04T11:52:05;100629.88;;;4.20;100.00
77452;BME280;66537;52.370;4.832;2023-12-04T11:57:26;100636.75;;;4.11;100.00
77452;BME280;66537;52.370;4.832;2023-12-04T12:00:11;100616.16;;;4.33;100.00
77452;BME280;66537;52.370;4.832;2023-12-04T12:02:40;100622.97;;;4.37;100.00
77452;BME280;66537;52.370;4.832;2023-12-04T12:05:06;100620.53;;;4.15;100.00
77452;BME280;66537;52.370;4.832;2023-12-04T12:07:33;100620.47;;;4.25;100.00
77452;BME280;66537;52.370;4.832;2023-12-04T12:09:59;100623.00;;;4.28;100.00
77452;BME280;66537;52.370;4.832;2023-12-04T12:12:26;100619.66;;;4.19;100.00
77452;BME280;66537;52.370;4.832;2023-12-04T12:14:51;100611.28;;;3.93;100.00
77452;BME280;66537;52.370;4.832;2023-12-04T12:17:17;100609.53;;;3.99;100.00
77452;BME280;66537;52.370;4.832;2023-12-04T12:19:42;100608.63;;;4.08;100.00
77452;BME280;66537;52.370;4.832;2023-12-04T12:22:09;100604.22;;;4.31;100.00
77452;BME280;66537;52.370;4.832;2023-12-04T12:24:34;100591.63;;;4.02;100.00
77452;BME280;66537;52.370;4.832;2023-12-04T12:27:00;100599.31;;;3.96;100.00
77452;BME280;66537;52.370;4.832;2023-12-04T12:29:27;100591.56;;;4.07;100.00
77452;BME280;66537;52.370;4.832;2023-12-04T12:31:52;100588.97;;;4.16;100.00
77452;BME280;66537;52.370;4.832;2023-12-04T12:34:17;100579.53;;;4.21;100.00
77452;BME280;66537;52.370;4.832;2023-12-04T12:36:43;100583.63;;;4.44;100.00
77452;BME280;66537;52.370;4.832;2023-12-04T12:39:08;100584.56;;;4.34;100.00
77452;BME280;66537;52.370;4.832;2023-12-04T12:41:34;100576.78;;;4.43;100.00
77452;BME280;66537;52.370;4.832;2023-12-04T12:44:00;100570.88;;;4.37;100.00
77452;BME280;66537;52.370;4.832;2023-12-04T12:46:26;100562.56;;;4.08;100.00
77452;BME280;66537;52.370;4.832;2023-12-04T12:48:51;100559.16;;;4.06;100.00